ADDS METAR Data INFO
IDs: Format: Raw Decoded Include TAF

Data at: 1604 UTC 12 Dec 2017

KCEZ 121553Z AUTO 06003KT 10SM CLR M03/M15 A3052 RMK AO2 SLP365 T10331150
KCEZ 121453Z AUTO 06003KT 10SM CLR M12/M17 A3052 RMK AO2 SLP388 T11171172 53004
KCEZ 121353Z AUTO 06006KT 10SM CLR M12/M18 A3052 RMK AO2 SLP382 T11221178
KCEZ 121253Z AUTO 07005KT 10SM CLR M12/M17 A3051 RMK AO2 SLP378 T11171172
KCEZ 121153Z AUTO 07004KT 10SM CLR M12/M18 A3051 RMK AO2 SLP360 T11171178 11089 21122 51004
KCEZ 121053Z AUTO 07004KT 10SM CLR M12/M18 A3051 RMK AO2 SLP349 T11171178
KCEZ 120953Z AUTO 05003KT 10SM CLR M12/M18 A3051 RMK AO2 SLP347 T11171183
KCEZ 120853Z AUTO 07004KT 10SM CLR M11/M18 A3050 RMK AO2 SLP339 T11061178 51007
KCEZ 120753Z AUTO 00000KT 10SM CLR M12/M18 A3049 RMK AO2 SLP344 T11171183
KCEZ 120653Z AUTO 06009KT 10SM CLR M09/M17 A3048 RMK AO2 SLP339 T10941172 400781150
KCEZ 120553Z AUTO 05004KT 10SM CLR M09/M18 A3047 RMK AO2 SLP337 T10941178 10028 21094 53011
KCEZ 120453Z AUTO 00000KT 10SM CLR M08/M18 A3045 RMK AO2 SLP337 T10781178
KCEZ 120353Z AUTO 07008KT 10SM CLR M06/M18 A3044 RMK AO2 SLP343 T10611178
KCEZ 120253Z AUTO 08009KT 10SM CLR M06/M18 A3043 RMK AO2 SLP358 T10611183 51007
KCEZ 120153Z AUTO 06008KT 10SM CLR M05/M18 A3043 RMK AO2 SLP351 T10501178
KCEZ 120053Z AUTO 07005KT 9SM CLR M04/M18 A3041 RMK AO2 SLP351 T10391178
KCEZ 112353Z AUTO 18003KT 10SM CLR 03/M17 A3040 RMK AO2 SLP323 T00281167 10078 20028 56002
KCEZ 112253Z AUTO 00000KT 10SM CLR 07/M17 A3041 RMK AO2 SLP315 T00721167
KCEZ 112153Z AUTO 22006KT 10SM CLR 08/M17 A3041 RMK AO2 SLP314 T00781167
KCEZ 112053Z AUTO 21005KT 10SM CLR 08/M17 A3041 RMK AO2 SLP317 T00781172 57024
KCEZ 111953Z AUTO 21007KT 10SM CLR 06/M17 A3044 RMK AO2 SLP324 T00611167
KCEZ 111853Z AUTO 21007KT 10SM CLR 05/M17 A3047 RMK AO2 SLP338 T00501172
KCEZ 111753Z AUTO 23004KT 10SM CLR 03/M17 A3050 RMK AO2 SLP353 T00331172 10033 21150 58005
KCEZ 111653Z AUTO 00000KT 10SM CLR M01/M16 A3051 RMK AO2 SLP367 T10061161
KCEZ 111553Z AUTO 00000KT 10SM CLR M07/M17 A3051 RMK AO2 SLP378 T10671167
KCEZ 111453Z AUTO 06004KT 10SM CLR M13/M18 A3051 RMK AO2 SLP394 T11281183 55001
KCEZ 111353Z AUTO 09004KT 10SM CLR M12/M18 A3051 RMK AO2 SLP387 T11221183
KCEZ 111253Z AUTO 00000KT 10SM CLR M15/M20 A3052 RMK AO2 SLP392 T11501200
KCEZ 111153Z AUTO 05007KT 10SM CLR M12/M18 A3052 RMK AO2 SLP363 T11221178 11094 21144 50005
KCEZ 111053Z AUTO 00000KT 10SM CLR M13/M19 A3052 RMK AO2 SLP355 T11331189
KCEZ 110953Z AUTO 06004KT 10SM CLR M13/M19 A3051 RMK AO2 SLP351 T11281189
KCEZ 110853Z AUTO 16006KT 10SM CLR M13/M19 A3050 RMK AO2 SLP346 T11331194 57004
KCEZ 110753Z AUTO 07004KT 10SM CLR M11/M18 A3051 RMK AO2 SLP346 T11111183
KCEZ 110653Z AUTO 09007KT 10SM CLR M11/M18 A3051 RMK AO2 SLP350 T11111183 400891161
KCEZ 110553Z AUTO 06006KT 10SM CLR M12/M18 A3052 RMK AO2 SLP360 T11171183 10033 21122 53006
KCEZ 110453Z AUTO 06004KT 10SM CLR M12/M19 A3051 RMK AO2 SLP367 T11171189